CheckWX is a tool to help pilots better visualize weather data.  It is not intended as a substitute for an official pre-flight weather briefing.

15:28:46 UTC

KHDO METAR
South Texas Regional at Hondo Airport
Hondo, Texas, USA
Current

38 mins ago

KHDO 261451Z AUTO 15013KT 10SM BKN018 BKN028 OVC039 26/21 A3005 RMK AO2 SLP158 T02610211 51013
Observed
May-26 @ 14:51 UTC
Wind
  • 150° at 13 KTS
Visibility
10 SM
Flight Rules
MVFR
Cloud Levels
  • Broken at 1,800' AGL
  • Broken at 2,800' AGL
  • Overcast at 3,900' AGL
Temperature
26°C / 79°F
Dewpoint
21°C / 70°F
Humidity
74%
Altimeter
30.05" Hg
Pressure
1017.62 hPa
Previous

2 hours ago

KHDO 261351Z AUTO 15010KT 10SM OVC017 25/22 A3004 RMK AO2 SLP155 T02500217
Observed
May-26 @ 13:51 UTC
Wind
  • 150° at 10 KTS
Visibility
10 SM
Flight Rules
MVFR
Cloud Levels
  • Overcast at 1,700' AGL
Temperature
25°C / 77°F
Dewpoint
22°C / 72°F
Humidity
83%
Altimeter
30.04" Hg
Pressure
1017.32 hPa
Previous

2 hours ago

KHDO 261300Z AUTO 14010KT 9SM BKN014 BKN026 OVC035 24/21 A3003 RMK AO2 T02440211
Observed
May-26 @ 13:00 UTC
Wind
  • 140° at 10 KTS
Visibility
9 SM
Flight Rules
MVFR
Cloud Levels
  • Broken at 1,400' AGL
  • Broken at 2,600' AGL
  • Overcast at 3,500' AGL
Temperature
24°C / 75°F
Dewpoint
21°C / 70°F
Humidity
83%
Altimeter
30.03" Hg
Pressure
1016.92 hPa